createdAt,value
2022-12-18T00:00:45.464Z,9.30
2022-12-18T00:06:10.022Z,8.10
2022-12-18T00:11:20.660Z,11.70
2022-12-18T00:16:27.351Z,5.40
2022-12-18T00:21:32.380Z,6.10
2022-12-18T00:26:37.727Z,5.60
2022-12-18T00:31:43.364Z,5.60
2022-12-18T00:36:49.279Z,4.70
2022-12-18T00:42:11.246Z,3.70
2022-12-18T00:47:14.440Z,9.50
2022-12-18T00:52:17.551Z,11.20
2022-12-18T00:57:20.757Z,8.90
2022-12-18T01:02:24.045Z,4.60
2022-12-18T01:07:27.374Z,6.40
2022-12-18T01:12:30.796Z,6.50
2022-12-18T01:17:34.922Z,3.00
2022-12-18T01:22:38.330Z,3.00
2022-12-18T01:27:41.547Z,4.00
2022-12-18T01:32:44.748Z,4.80
2022-12-18T01:37:48.083Z,7.40
2022-12-18T01:42:55.054Z,3.80
2022-12-18T01:48:09.995Z,7.10
2022-12-18T01:53:24.531Z,9.30
2022-12-18T01:59:01.219Z,7.40
2022-12-18T02:04:36.792Z,5.50
2022-12-18T02:09:56.377Z,5.40
2022-12-18T02:15:17.790Z,5.60
2022-12-18T02:20:43.332Z,8.10
2022-12-18T02:26:15.321Z,7.80
2022-12-18T02:31:28.400Z,6.70
2022-12-18T02:36:35.003Z,4.20
2022-12-18T02:41:39.661Z,12.30
2022-12-18T02:46:49.959Z,13.90
2022-12-18T02:52:14.266Z,8.60
2022-12-18T02:57:17.412Z,6.00
2022-12-18T03:02:57.620Z,7.10
2022-12-18T03:08:09.473Z,5.60
2022-12-18T03:13:25.774Z,6.20
2022-12-18T03:18:43.930Z,4.70
2022-12-18T03:23:52.726Z,5.90
2022-12-18T03:29:05.915Z,6.70
2022-12-18T03:34:22.746Z,11.20
2022-12-18T03:39:26.943Z,8.30
2022-12-18T03:45:09.509Z,7.10
2022-12-18T03:50:37.186Z,7.70
2022-12-18T03:55:42.174Z,7.20
2022-12-18T04:00:46.168Z,7.70
2022-12-18T04:05:53.625Z,5.60
2022-12-18T04:10:56.988Z,6.00
2022-12-18T04:16:00.336Z,6.70
2022-12-18T04:21:04.629Z,6.90
2022-12-18T04:26:07.840Z,7.30
2022-12-18T04:31:11.186Z,10.30
2022-12-18T04:36:14.582Z,11.30
2022-12-18T04:41:17.775Z,10.40
2022-12-18T04:46:20.828Z,9.00
2022-12-18T04:51:26.677Z,9.00
2022-12-18T04:56:33.038Z,7.20
2022-12-18T05:01:36.205Z,8.70
2022-12-18T05:06:39.550Z,7.40
2022-12-18T05:11:42.657Z,7.50
2022-12-18T05:16:45.762Z,8.30
2022-12-18T05:21:48.973Z,6.80
2022-12-18T05:26:52.278Z,7.80
2022-12-18T05:31:55.372Z,6.10
2022-12-18T05:36:58.494Z,9.00
2022-12-18T05:42:01.610Z,7.70
2022-12-18T05:47:05.408Z,9.30
2022-12-18T05:52:08.839Z,9.70
2022-12-18T05:57:11.967Z,7.00
2022-12-18T06:02:15.346Z,7.40
2022-12-18T06:07:18.769Z,17.50
2022-12-18T06:12:22.392Z,22.00
2022-12-18T06:17:30.774Z,25.10
2022-12-18T06:22:34.040Z,14.20
2022-12-18T06:27:37.239Z,11.60
2022-12-18T06:32:40.447Z,11.40
2022-12-18T06:37:43.551Z,9.90
2022-12-18T06:42:46.787Z,9.80
2022-12-18T06:47:49.975Z,10.90
2022-12-18T06:52:53.082Z,10.20
2022-12-18T06:57:56.175Z,15.80
2022-12-18T07:02:59.358Z,14.80
2022-12-18T07:08:02.601Z,10.80
2022-12-18T07:13:05.700Z,21.80
2022-12-18T07:18:08.830Z,47.70
2022-12-18T07:23:12.014Z,50.60
2022-12-18T07:28:17.668Z,41.20
2022-12-18T07:33:21.095Z,19.50
2022-12-18T07:38:24.123Z,25.40
2022-12-18T07:43:27.206Z,15.90
2022-12-18T07:48:30.759Z,20.60
2022-12-18T07:53:36.423Z,12.30
2022-12-18T07:58:40.107Z,13.50
2022-12-18T08:03:43.345Z,9.20
2022-12-18T08:08:46.544Z,13.80
2022-12-18T08:13:50.260Z,20.20
2022-12-18T08:18:55.197Z,19.00
2022-12-18T08:24:01.746Z,10.20
2022-12-18T08:29:04.894Z,14.60
2022-12-18T08:34:09.849Z,9.70
2022-12-18T08:39:13.265Z,8.90
2022-12-18T08:44:35.204Z,14.10
2022-12-18T08:49:38.406Z,22.70
2022-12-18T08:54:41.924Z,22.60
2022-12-18T08:59:45.064Z,12.80
2022-12-18T09:04:55.403Z,13.80
2022-12-18T09:10:00.354Z,13.90
2022-12-18T09:15:04.437Z,13.90
2022-12-18T09:20:10.022Z,17.90
2022-12-18T09:25:13.171Z,7.30
2022-12-18T09:30:16.474Z,13.00
2022-12-18T09:35:19.580Z,10.10
2022-12-18T09:40:30.159Z,13.70
2022-12-18T09:45:51.257Z,10.40
2022-12-18T09:51:02.278Z,11.80
2022-12-18T09:56:07.638Z,24.30
2022-12-18T10:01:19.449Z,22.80
2022-12-18T10:06:44.158Z,19.60
2022-12-18T10:12:27.974Z,17.80
2022-12-18T10:17:52.638Z,19.00
2022-12-18T10:23:04.719Z,41.90
2022-12-18T10:28:17.667Z,19.70
2022-12-18T10:33:26.021Z,17.70
2022-12-18T10:38:33.035Z,20.20
2022-12-18T10:43:38.405Z,13.80
2022-12-18T10:48:48.585Z,23.20
2022-12-18T10:54:04.363Z,20.10
2022-12-18T10:59:14.336Z,27.90
2022-12-18T11:04:24.509Z,22.90
2022-12-18T11:09:32.888Z,25.30
2022-12-18T11:14:51.146Z,14.60
2022-12-18T11:20:00.530Z,11.30
2022-12-18T11:25:34.908Z,20.80
2022-12-18T11:30:39.103Z,18.40
2022-12-18T11:35:54.085Z,18.50
2022-12-18T11:41:12.344Z,27.00
2022-12-18T11:46:27.891Z,17.60
2022-12-18T11:51:53.273Z,26.10
2022-12-18T11:57:36.109Z,20.40
2022-12-18T12:03:23.870Z,19.50
2022-12-18T12:09:01.278Z,14.80
2022-12-18T12:14:28.982Z,21.00
2022-12-18T12:19:53.495Z,23.40
2022-12-18T12:25:36.711Z,18.00
2022-12-18T12:30:48.721Z,14.30
2022-12-18T12:36:23.471Z,11.50
2022-12-18T12:41:51.898Z,13.20
2022-12-18T12:47:06.033Z,16.30
2022-12-18T12:52:18.623Z,16.60
2022-12-18T12:58:06.729Z,11.80
2022-12-18T13:03:53.552Z,14.60
2022-12-18T13:09:01.443Z,15.40
2022-12-18T13:14:04.595Z,11.60
2022-12-18T13:19:26.490Z,19.50
2022-12-18T13:24:33.630Z,14.70
2022-12-18T13:29:46.486Z,22.30
2022-12-18T13:35:19.922Z,35.80
2022-12-18T13:40:46.284Z,24.00
2022-12-18T13:46:03.265Z,24.00
2022-12-18T13:51:17.736Z,17.40
2022-12-18T13:56:48.455Z,17.10
2022-12-18T14:02:01.987Z,18.90
2022-12-18T14:07:18.010Z,16.10
2022-12-18T14:12:52.529Z,10.80
2022-12-18T14:18:04.579Z,28.90
2022-12-18T14:23:38.391Z,24.50
2022-12-18T14:28:45.738Z,21.50
2022-12-18T14:33:49.148Z,18.20
2022-12-18T14:38:58.227Z,17.60
2022-12-18T14:44:12.459Z,16.40
2022-12-18T14:49:32.042Z,13.50
2022-12-18T14:54:38.640Z,21.10
2022-12-18T14:59:41.965Z,20.00
2022-12-18T15:04:46.396Z,20.60
2022-12-18T15:10:24.926Z,16.80
2022-12-18T15:15:34.388Z,16.00
2022-12-18T15:20:43.838Z,14.40
2022-12-18T15:25:49.734Z,9.30
2022-12-18T15:31:10.950Z,13.30
2022-12-18T15:36:17.594Z,9.20
2022-12-18T15:41:25.959Z,14.60
2022-12-18T15:46:29.172Z,15.80
2022-12-18T15:51:38.603Z,21.40
2022-12-18T15:57:00.288Z,22.60
2022-12-18T16:02:03.564Z,18.80
2022-12-18T16:07:17.579Z,17.50
2022-12-18T16:12:26.868Z,8.10
2022-12-18T16:17:32.990Z,11.10
2022-12-18T16:22:36.480Z,16.00
2022-12-18T16:27:39.789Z,18.30
2022-12-18T16:32:44.399Z,22.30
2022-12-18T16:37:48.049Z,20.70
2022-12-18T16:42:51.283Z,14.60
2022-12-18T16:47:54.399Z,12.90
2022-12-18T16:52:57.668Z,10.10
2022-12-18T16:58:01.117Z,9.10
2022-12-18T17:03:04.559Z,11.00
2022-12-18T17:08:08.034Z,11.60
2022-12-18T17:13:11.329Z,14.70
2022-12-18T17:18:14.539Z,13.00
2022-12-18T17:23:17.745Z,15.70
2022-12-18T17:28:22.226Z,12.90
2022-12-18T17:33:26.004Z,12.10
2022-12-18T17:38:29.143Z,15.30
2022-12-18T17:43:36.121Z,11.10
2022-12-18T17:48:40.417Z,14.10
2022-12-18T17:53:44.317Z,7.20
2022-12-18T17:58:50.551Z,20.20
2022-12-18T18:03:57.929Z,14.60
2022-12-18T18:09:01.264Z,12.30
2022-12-18T18:14:19.843Z,12.30
2022-12-18T18:19:25.506Z,7.50
2022-12-18T18:24:28.727Z,9.00
2022-12-18T18:29:32.026Z,11.10
2022-12-18T18:34:35.871Z,13.30
2022-12-18T18:39:47.023Z,15.00
2022-12-18T18:44:50.246Z,12.10
2022-12-18T18:49:53.460Z,12.30
2022-12-18T18:55:12.189Z,15.50
2022-12-18T19:00:17.474Z,35.80
2022-12-18T19:05:20.594Z,38.70
2022-12-18T19:10:23.935Z,37.30
2022-12-18T19:15:27.012Z,33.60
2022-12-18T19:20:30.528Z,22.90
2022-12-18T19:25:41.628Z,20.40
2022-12-18T19:30:45.858Z,19.80
2022-12-18T19:35:49.165Z,23.40
2022-12-18T19:40:52.779Z,28.00
2022-12-18T19:45:56.489Z,34.10
2022-12-18T19:51:24.900Z,35.10
2022-12-18T19:56:35.511Z,37.30
2022-12-18T20:01:38.771Z,38.80
2022-12-18T20:06:53.505Z,45.70
2022-12-18T20:11:56.784Z,44.40
2022-12-18T20:17:00.591Z,35.30
2022-12-18T20:22:04.085Z,26.80
2022-12-18T20:27:14.049Z,60.30
2022-12-18T20:32:19.469Z,27.90
2022-12-18T20:37:23.064Z,19.90
2022-12-18T20:42:27.329Z,26.50
2022-12-18T20:47:30.506Z,21.30
2022-12-18T20:52:34.124Z,19.90
2022-12-18T20:57:39.285Z,24.40
2022-12-18T21:02:42.606Z,23.00
2022-12-18T21:07:46.240Z,34.60
2022-12-18T21:12:58.719Z,39.00
2022-12-18T21:18:05.123Z,36.70
2022-12-18T21:23:16.440Z,42.30
2022-12-18T21:28:20.543Z,34.40
2022-12-18T21:33:23.954Z,30.30
2022-12-18T21:38:28.700Z,25.70
2022-12-18T21:44:04.373Z,24.60
2022-12-18T21:49:09.847Z,24.70
2022-12-18T21:54:13.047Z,23.90
2022-12-18T21:59:25.874Z,21.50
2022-12-18T22:04:30.054Z,21.60
2022-12-18T22:09:34.517Z,20.60
2022-12-18T22:14:37.882Z,22.90
2022-12-18T22:19:43.139Z,21.80
2022-12-18T22:24:46.627Z,29.00
2022-12-18T22:30:05.217Z,24.50
2022-12-18T22:40:25.334Z,24.60
2022-12-18T22:45:29.056Z,18.60
2022-12-18T22:50:33.905Z,20.30
2022-12-18T22:55:37.111Z,16.40
2022-12-18T23:00:40.942Z,20.30
2022-12-18T23:05:44.159Z,17.10
2022-12-18T23:10:47.348Z,25.60
2022-12-18T23:15:50.498Z,14.80
2022-12-18T23:20:53.667Z,26.30
2022-12-18T23:26:08.113Z,15.90
2022-12-18T23:31:24.344Z,22.30
2022-12-18T23:36:28.996Z,21.80
2022-12-18T23:41:34.259Z,23.00
2022-12-18T23:46:37.980Z,20.70
2022-12-18T23:51:41.179Z,18.90
2022-12-18T23:56:46.340Z,18.30
